sensor_id;sensor_type;location;lat;lon;timestamp;pressure;altitude;pressure_sealevel;temperature;humidity
31775;BME280;66189;49.000;11.640;2023-02-12T00:00:11;97743.19;;;2.30;81.58
31775;BME280;66189;49.000;11.640;2023-02-12T00:02:17;97753.78;;;2.25;82.03
31775;BME280;66189;49.000;11.640;2023-02-12T00:04:18;97767.06;;;2.20;81.74
31775;BME280;66189;49.000;11.640;2023-02-12T00:06:18;97776.84;;;2.20;81.93
31775;BME280;66189;49.000;11.640;2023-02-12T00:08:19;97768.94;;;2.25;82.08
31775;BME280;66189;49.000;11.640;2023-02-12T00:10:19;97757.50;;;2.24;81.75
31775;BME280;66189;49.000;11.640;2023-02-12T00:12:19;97760.41;;;2.23;82.30
31775;BME280;66189;49.000;11.640;2023-02-12T00:14:20;97761.22;;;2.23;82.54
31775;BME280;66189;49.000;11.640;2023-02-12T00:16:23;97762.28;;;2.27;82.12
31775;BME280;66189;49.000;11.640;2023-02-12T00:18:24;97766.03;;;2.26;82.41
31775;BME280;66189;49.000;11.640;2023-02-12T00:20:24;97763.59;;;2.20;82.99
31775;BME280;66189;49.000;11.640;2023-02-12T00:22:25;97767.31;;;2.24;82.65
31775;BME280;66189;49.000;11.640;2023-02-12T00:24:25;97766.03;;;2.26;82.55
31775;BME280;66189;49.000;11.640;2023-02-12T00:26:27;97758.84;;;2.27;82.75
31775;BME280;66189;49.000;11.640;2023-02-12T00:28:27;97757.78;;;2.28;82.46
31775;BME280;66189;49.000;11.640;2023-02-12T00:30:29;97754.88;;;2.29;82.26
31775;BME280;66189;49.000;11.640;2023-02-12T00:32:29;97765.50;;;2.35;82.36
31775;BME280;66189;49.000;11.640;2023-02-12T00:34:30;97760.72;;;2.37;82.28
31775;BME280;66189;49.000;11.640;2023-02-12T00:36:31;97766.03;;;2.37;81.89
31775;BME280;66189;49.000;11.640;2023-02-12T00:38:32;97771.91;;;2.39;81.55
31775;BME280;66189;49.000;11.640;2023-02-12T00:40:33;97769.25;;;2.39;81.29
31775;BME280;66189;49.000;11.640;2023-02-12T00:42:33;97778.53;;;2.41;81.45
31775;BME280;66189;49.000;11.640;2023-02-12T00:44:34;97774.84;;;2.37;82.03
31775;BME280;66189;49.000;11.640;2023-02-12T00:46:36;97768.44;;;2.38;82.18
31775;BME280;66189;49.000;11.640;2023-02-12T00:48:37;97762.84;;;2.35;82.49
31775;BME280;66189;49.000;11.640;2023-02-12T00:50:37;97758.91;;;2.37;82.68
31775;BME280;66189;49.000;11.640;2023-02-12T00:52:40;97760.22;;;2.40;82.38
31775;BME280;66189;49.000;11.640;2023-02-12T00:54:41;97768.44;;;2.33;82.50
31775;BME280;66189;49.000;11.640;2023-02-12T00:56:41;97775.56;;;2.27;82.78
31775;BME280;66189;49.000;11.640;2023-02-12T00:58:42;97780.59;;;2.24;82.98
31775;BME280;66189;49.000;11.640;2023-02-12T01:00:42;97784.56;;;2.21;83.26
31775;BME280;66189;49.000;11.640;2023-02-12T01:02:43;97785.63;;;2.20;83.32
31775;BME280;66189;49.000;11.640;2023-02-12T01:04:44;97780.34;;;2.20;83.53
31775;BME280;66189;49.000;11.640;2023-02-12T01:06:45;97776.34;;;2.23;83.06
31775;BME280;66189;49.000;11.640;2023-02-12T01:08:49;97784.81;;;2.20;83.19
31775;BME280;66189;49.000;11.640;2023-02-12T01:11:01;97784.28;;;2.18;82.98
31775;BME280;66189;49.000;11.640;2023-02-12T01:13:02;97784.03;;;2.19;83.20
31775;BME280;66189;49.000;11.640;2023-02-12T01:15:03;97787.53;;;2.25;83.25
31775;BME280;66189;49.000;11.640;2023-02-12T01:17:03;97785.13;;;2.23;83.21
31775;BME280;66189;49.000;11.640;2023-02-12T01:19:03;97785.94;;;2.29;82.59
31775;BME280;66189;49.000;11.640;2023-02-12T01:21:12;97798.41;;;2.23;83.24
31775;BME280;66189;49.000;11.640;2023-02-12T01:23:13;97786.16;;;2.17;83.42
31775;BME280;66189;49.000;11.640;2023-02-12T01:25:13;97794.41;;;2.21;83.60
31775;BME280;66189;49.000;11.640;2023-02-12T01:27:14;97787.22;;;2.16;83.88
31775;BME280;66189;49.000;11.640;2023-02-12T01:29:15;97798.66;;;2.22;83.33
31775;BME280;66189;49.000;11.640;2023-02-12T01:31:18;97792.56;;;2.26;83.60
31775;BME280;66189;49.000;11.640;2023-02-12T01:33:18;97795.22;;;2.26;83.41
31775;BME280;66189;49.000;11.640;2023-02-12T01:35:20;97791.22;;;2.24;83.82
31775;BME280;66189;49.000;11.640;2023-02-12T01:37:20;97792.00;;;2.24;83.16
31775;BME280;66189;49.000;11.640;2023-02-12T01:39:21;97789.09;;;2.26;83.08
31775;BME280;66189;49.000;11.640;2023-02-12T01:41:26;97789.91;;;2.26;83.23
31775;BME280;66189;49.000;11.640;2023-02-12T01:43:26;97785.34;;;2.17;83.83
31775;BME280;66189;49.000;11.640;2023-02-12T01:47:27;97779.75;;;2.13;83.74
31775;BME280;66189;49.000;11.640;2023-02-12T01:49:36;97781.06;;;2.16;83.49
31775;BME280;66189;49.000;11.640;2023-02-12T01:51:39;97775.75;;;2.16;83.47
31775;BME280;66189;49.000;11.640;2023-02-12T01:53:46;97771.84;;;2.23;82.99
31775;BME280;66189;49.000;11.640;2023-02-12T01:55:50;97772.38;;;2.20;83.01
31775;BME280;66189;49.000;11.640;2023-02-12T01:57:52;97782.47;;;2.23;82.41
31775;BME280;66189;49.000;11.640;2023-02-12T01:59:55;97775.81;;;2.21;83.28
31775;BME280;66189;49.000;11.640;2023-02-12T02:01:57;97773.44;;;2.24;83.06
31775;BME280;66189;49.000;11.640;2023-02-12T02:04:10;97778.72;;;2.19;82.95
31775;BME280;66189;49.000;11.640;2023-02-12T02:06:16;97775.56;;;2.27;83.09
31775;BME280;66189;49.000;11.640;2023-02-12T02:08:18;97769.97;;;2.24;83.11
31775;BME280;66189;49.000;11.640;2023-02-12T02:10:19;97769.22;;;2.28;83.65
31775;BME280;66189;49.000;11.640;2023-02-12T02:12:20;97776.13;;;2.29;83.53
31775;BME280;66189;49.000;11.640;2023-02-12T02:14:40;97774.53;;;2.34;83.69
31775;BME280;66189;49.000;11.640;2023-02-12T02:16:44;97778.81;;;2.40;83.01
31775;BME280;66189;49.000;11.640;2023-02-12T02:18:54;97781.72;;;2.38;83.60
31775;BME280;66189;49.000;11.640;2023-02-12T02:26:21;97784.38;;;2.33;83.89
31775;BME280;66189;49.000;11.640;2023-02-12T02:30:42;97781.97;;;2.31;84.45
31775;BME280;66189;49.000;11.640;2023-02-12T02:32:49;97784.63;;;2.37;84.31
31775;BME280;66189;49.000;11.640;2023-02-12T02:35:10;97777.22;;;2.39;83.41
31775;BME280;66189;49.000;11.640;2023-02-12T02:37:16;97778.81;;;2.40;83.77
31775;BME280;66189;49.000;11.640;2023-02-12T02:39:38;97774.56;;;2.39;83.69
31775;BME280;66189;49.000;11.640;2023-02-12T02:41:48;97774.56;;;2.39;83.84
31775;BME280;66189;49.000;11.640;2023-02-12T02:43:51;97792.09;;;2.40;83.68
31775;BME280;66189;49.000;11.640;2023-02-12T02:45:58;97793.16;;;2.39;83.74
31775;BME280;66189;49.000;11.640;2023-02-12T02:48:09;97793.16;;;2.39;83.73
31775;BME280;66189;49.000;11.640;2023-02-12T02:50:14;97793.16;;;2.39;84.54
31775;BME280;66189;49.000;11.640;2023-02-12T02:52:25;97792.09;;;2.40;84.05
31775;BME280;66189;49.000;11.640;2023-02-12T02:54:33;97788.38;;;2.36;85.15
31775;BME280;66189;49.000;11.640;2023-02-12T02:56:38;97790.78;;;2.37;84.77
31775;BME280;66189;49.000;11.640;2023-02-12T02:58:45;97789.94;;;2.37;84.99
31775;BME280;66189;49.000;11.640;2023-02-12T03:00:54;97801.13;;;2.39;85.28
31775;BME280;66189;49.000;11.640;2023-02-12T03:03:01;97790.50;;;2.39;84.81
31775;BME280;66189;49.000;11.640;2023-02-12T03:05:11;97785.19;;;2.39;85.14
31775;BME280;66189;49.000;11.640;2023-02-12T03:07:27;97782.81;;;2.37;85.59
31775;BME280;66189;49.000;11.640;2023-02-12T03:11:54;97787.03;;;2.38;85.61
31775;BME280;66189;49.000;11.640;2023-02-12T03:16:17;97790.78;;;2.37;85.84
31775;BME280;66189;49.000;11.640;2023-02-12T03:18:25;97784.63;;;2.37;85.78
31775;BME280;66189;49.000;11.640;2023-02-12T03:20:30;97780.13;;;2.37;85.83
31775;BME280;66189;49.000;11.640;2023-02-12T03:22:38;97788.88;;;2.33;86.02
31775;BME280;66189;49.000;11.640;2023-02-12T03:24:50;97785.38;;;2.22;86.56
31775;BME280;66189;49.000;11.640;2023-02-12T03:26:57;97783.50;;;2.22;86.95
31775;BME280;66189;49.000;11.640;2023-02-12T03:28:59;97779.44;;;2.04;87.55
31775;BME280;66189;49.000;11.640;2023-02-12T03:35:39;97787.66;;;2.03;88.60
31775;BME280;66189;49.000;11.640;2023-02-12T03:37:54;97801.44;;;2.00;88.44
31775;BME280;66189;49.000;11.640;2023-02-12T03:40:21;97803.03;;;2.01;89.09
31775;BME280;66189;49.000;11.640;2023-02-12T03:49:21;97813.69;;;2.06;88.82
31775;BME280;66189;49.000;11.640;2023-02-12T03:53:27;97813.19;;;2.14;88.53
31775;BME280;66189;49.000;11.640;2023-02-12T03:55:30;97808.91;;;2.08;88.50
31775;BME280;66189;49.000;11.640;2023-02-12T03:57:38;97810.97;;;1.95;88.85
31775;BME280;66189;49.000;11.640;2023-02-12T03:59:40;97816.06;;;2.02;89.30
31775;BME280;66189;49.000;11.640;2023-02-12T04:01:42;97818.75;;;2.07;89.00
31775;BME280;66189;49.000;11.640;2023-02-12T04:03:43;97817.09;;;2.01;88.91
31775;BME280;66189;49.000;11.640;2023-02-12T04:05:43;97822.44;;;2.06;89.21
31775;BME280;66189;49.000;11.640;2023-02-12T04:07:44;97813.69;;;2.06;88.61
31775;BME280;66189;49.000;11.640;2023-02-12T04:09:44;97818.19;;;2.05;88.85
31775;BME280;66189;49.000;11.640;2023-02-12T04:12:01;97826.69;;;2.02;88.37
31775;BME280;66189;49.000;11.640;2023-02-12T04:23:00;97814.47;;;2.01;89.16
31775;BME280;66189;49.000;11.640;2023-02-12T04:27:59;97829.28;;;1.97;89.73
31775;BME280;66189;49.000;11.640;2023-02-12T04:30:49;97826.69;;;2.02;89.60
31775;BME280;66189;49.000;11.640;2023-02-12T04:32:58;97830.41;;;2.06;89.22
31775;BME280;66189;49.000;11.640;2023-02-12T04:37:11;97829.63;;;2.06;88.96
31775;BME280;66189;49.000;11.640;2023-02-12T04:39:22;97832.53;;;2.09;88.88
31775;BME280;66189;49.000;11.640;2023-02-12T04:41:25;97837.06;;;2.09;88.48
31775;BME280;66189;49.000;11.640;2023-02-12T04:43:31;97838.38;;;2.06;88.59
31775;BME280;66189;49.000;11.640;2023-02-12T04:45:35;97833.56;;;2.03;88.75
31775;BME280;66189;49.000;11.640;2023-02-12T04:47:35;97843.69;;;2.06;89.00
31775;BME280;66189;49.000;11.640;2023-02-12T04:49:36;97847.19;;;2.12;88.61
31775;BME280;66189;49.000;11.640;2023-02-12T04:51:36;97832.81;;;2.08;88.69
31775;BME280;66189;49.000;11.640;2023-02-12T04:53:37;97843.16;;;2.09;88.50
31775;BME280;66189;49.000;11.640;2023-02-12T04:55:37;97847.19;;;2.12;88.63
31775;BME280;66189;49.000;11.640;2023-02-12T04:57:38;97845.56;;;2.11;88.25
31775;BME280;66189;49.000;11.640;2023-02-12T04:59:38;97852.47;;;2.12;88.40
31775;BME280;66189;49.000;11.640;2023-02-12T05:01:40;97842.91;;;2.11;88.70
31775;BME280;66189;49.000;11.640;2023-02-12T05:03:40;97848.72;;;2.08;88.43
31775;BME280;66189;49.000;11.640;2023-02-12T05:05:41;97853.69;;;1.94;89.05
31775;BME280;66189;49.000;11.640;2023-02-12T05:07:41;97851.53;;;1.91;89.45
31775;BME280;66189;49.000;11.640;2023-02-12T05:09:42;97846.78;;;1.93;89.84
31775;BME280;66189;49.000;11.640;2023-02-12T05:11:42;97854.50;;;1.94;90.25
31775;BME280;66189;49.000;11.640;2023-02-12T05:13:46;97861.13;;;1.97;90.07
31775;BME280;66189;49.000;11.640;2023-02-12T05:15:47;97855.56;;;1.99;90.10
31775;BME280;66189;49.000;11.640;2023-02-12T05:17:47;97867.53;;;2.01;89.80
31775;BME280;66189;49.000;11.640;2023-02-12T05:19:48;97864.38;;;2.04;89.33
31775;BME280;66189;49.000;11.640;2023-02-12T05:21:49;97867.31;;;2.08;88.98
31775;BME280;66189;49.000;11.640;2023-02-12T05:23:50;97863.63;;;2.09;88.60
31775;BME280;66189;49.000;11.640;2023-02-12T05:25:51;97860.94;;;2.04;88.77
31775;BME280;66189;49.000;11.640;2023-02-12T05:27:51;97862.22;;;2.01;88.99
31775;BME280;66189;49.000;11.640;2023-02-12T05:29:51;97860.38;;;2.02;89.19
31775;BME280;66189;49.000;11.640;2023-02-12T05:31:52;97869.44;;;2.06;89.63
31775;BME280;66189;49.000;11.640;2023-02-12T05:33:52;97868.13;;;2.08;89.21
31775;BME280;66189;49.000;11.640;2023-02-12T05:35:53;97871.31;;;2.10;88.85
31775;BME280;66189;49.000;11.640;2023-02-12T05:37:54;97864.72;;;2.13;88.54
31775;BME280;66189;49.000;11.640;2023-02-12T05:39:54;97870.63;;;2.20;88.10
31775;BME280;66189;49.000;11.640;2023-02-12T05:41:55;97866.59;;;2.18;87.69
31775;BME280;66189;49.000;11.640;2023-02-12T05:43:55;97872.09;;;2.06;87.68
31775;BME280;66189;49.000;11.640;2023-02-12T05:46:00;97872.59;;;2.03;88.53
31775;BME280;66189;49.000;11.640;2023-02-12T05:48:01;97877.66;;;2.04;88.66
31775;BME280;66189;49.000;11.640;2023-02-12T05:50:02;97871.56;;;2.04;88.85
31775;BME280;66189;49.000;11.640;2023-02-12T05:52:02;97876.59;;;2.05;88.17
31775;BME280;66189;49.000;11.640;2023-02-12T05:54:05;97878.69;;;2.03;88.16
31775;BME280;66189;49.000;11.640;2023-02-12T05:56:12;97873.38;;;2.03;88.15
31775;BME280;66189;49.000;11.640;2023-02-12T05:58:13;97874.97;;;1.99;88.36
31775;BME280;66189;49.000;11.640;2023-02-12T06:00:13;97876.56;;;2.00;88.19
31775;BME280;66189;49.000;11.640;2023-02-12T06:02:14;97876.88;;;2.04;88.46
31775;BME280;66189;49.000;11.640;2023-02-12T06:04:20;97879.53;;;2.04;88.20
31775;BME280;66189;49.000;11.640;2023-02-12T06:06:24;97879.81;;;2.07;88.49
31775;BME280;66189;49.000;11.640;2023-02-12T06:08:25;97879.41;;;2.26;89.30
31775;BME280;66189;49.000;11.640;2023-02-12T06:10:25;97883.47;;;2.39;89.28
31775;BME280;66189;49.000;11.640;2023-02-12T06:12:26;97886.44;;;2.47;89.14
31775;BME280;66189;49.000;11.640;2023-02-12T06:14:26;97888.63;;;2.56;89.24
31775;BME280;66189;49.000;11.640;2023-02-12T06:16:27;97888.28;;;2.42;87.96
31775;BME280;66189;49.000;11.640;2023-02-12T06:18:28;97891.72;;;2.42;87.58
31775;BME280;66189;49.000;11.640;2023-02-12T06:20:29;97897.00;;;2.37;87.63
31775;BME280;66189;49.000;11.640;2023-02-12T06:22:29;97904.41;;;2.35;87.67
31775;BME280;66189;49.000;11.640;2023-02-12T06:24:29;97899.34;;;2.34;87.52
31775;BME280;66189;49.000;11.640;2023-02-12T06:26:30;97899.84;;;2.25;87.96
31775;BME280;66189;49.000;11.640;2023-02-12T06:28:30;97901.72;;;2.25;88.02
31775;BME280;66189;49.000;11.640;2023-02-12T06:30:33;97894.25;;;2.22;88.32
31775;BME280;66189;49.000;11.640;2023-02-12T06:32:33;97900.88;;;2.19;88.47
31775;BME280;66189;49.000;11.640;2023-02-12T06:34:34;97904.53;;;2.13;88.49
31775;BME280;66189;49.000;11.640;2023-02-12T06:36:37;97898.16;;;2.14;88.47
31775;BME280;66189;49.000;11.640;2023-02-12T06:38:38;97896.56;;;2.13;88.99
31775;BME280;66189;49.000;11.640;2023-02-12T06:40:38;97897.88;;;2.10;88.77
31775;BME280;66189;49.000;11.640;2023-02-12T06:42:39;97896.25;;;2.09;88.23
31775;BME280;66189;49.000;11.640;2023-02-12T06:44:39;97901.63;;;2.15;88.65
31775;BME280;66189;49.000;11.640;2023-02-12T06:46:40;97896.00;;;2.11;88.20
31775;BME280;66189;49.000;11.640;2023-02-12T06:48:40;97901.31;;;2.11;88.38
31775;BME280;66189;49.000;11.640;2023-02-12T06:50:41;97902.41;;;2.10;88.24
31775;BME280;66189;49.000;11.640;2023-02-12T06:52:41;97900.88;;;2.19;88.45
31775;BME280;66189;49.000;11.640;2023-02-12T06:54:42;97896.09;;;2.21;88.07
31775;BME280;66189;49.000;11.640;2023-02-12T06:56:42;97903.28;;;2.21;88.41
31775;BME280;66189;49.000;11.640;2023-02-12T06:58:44;97902.69;;;2.13;88.41
31775;BME280;66189;49.000;11.640;2023-02-12T07:00:44;97899.75;;;2.10;88.88
31775;BME280;66189;49.000;11.640;2023-02-12T07:02:51;97906.09;;;2.09;88.78
31775;BME280;66189;49.000;11.640;2023-02-12T07:04:51;97904.47;;;2.08;88.57
31775;BME280;66189;49.000;11.640;2023-02-12T07:06:52;97903.97;;;2.11;88.43
31775;BME280;66189;49.000;11.640;2023-02-12T07:08:53;97908.78;;;2.14;88.56
31775;BME280;66189;49.000;11.640;2023-02-12T07:10:54;97910.09;;;2.11;88.50
31775;BME280;66189;49.000;11.640;2023-02-12T07:12:54;97912.50;;;2.13;88.52
31775;BME280;66189;49.000;11.640;2023-02-12T07:14:54;97915.44;;;2.17;88.62
31775;BME280;66189;49.000;11.640;2023-02-12T07:16:55;97920.50;;;2.18;88.71
31775;BME280;66189;49.000;11.640;2023-02-12T07:18:55;97916.78;;;2.19;88.52
31775;BME280;66189;49.000;11.640;2023-02-12T07:20:56;97916.78;;;2.19;88.42
31775;BME280;66189;49.000;11.640;2023-02-12T07:22:56;97920.50;;;2.18;88.26
31775;BME280;66189;49.000;11.640;2023-02-12T07:24:57;97918.94;;;2.22;89.04
31775;BME280;66189;49.000;11.640;2023-02-12T07:26:57;97920.56;;;2.23;88.57
31775;BME280;66189;49.000;11.640;2023-02-12T07:28:57;97934.38;;;2.25;88.73
31775;BME280;66189;49.000;11.640;2023-02-12T07:31:08;97923.50;;;2.27;88.76
31775;BME280;66189;49.000;11.640;2023-02-12T07:33:08;97919.53;;;2.29;88.67
31775;BME280;66189;49.000;11.640;2023-02-12T07:35:09;97928.03;;;2.31;88.63
31775;BME280;66189;49.000;11.640;2023-02-12T07:37:09;97928.03;;;2.31;88.77
31775;BME280;66189;49.000;11.640;2023-02-12T07:39:10;97927.78;;;2.33;89.05
31775;BME280;66189;49.000;11.640;2023-02-12T07:41:17;97926.50;;;2.41;88.73
31775;BME280;66189;49.000;11.640;2023-02-12T07:43:18;97925.66;;;2.35;88.28
31775;BME280;66189;49.000;11.640;2023-02-12T07:45:18;97924.38;;;2.38;88.82
31775;BME280;66189;49.000;11.640;2023-02-12T07:47:19;97919.06;;;2.38;88.25
31775;BME280;66189;49.000;11.640;2023-02-12T07:49:20;97922.47;;;2.33;88.42
31775;BME280;66189;49.000;11.640;2023-02-12T07:51:22;97927.78;;;2.33;88.81
31775;BME280;66189;49.000;11.640;2023-02-12T07:53:22;97926.19;;;2.32;88.70
31775;BME280;66189;49.000;11.640;2023-02-12T07:55:23;97925.34;;;2.26;89.17
31775;BME280;66189;49.000;11.640;2023-02-12T07:57:23;97927.19;;;2.26;89.24
31775;BME280;66189;49.000;11.640;2023-02-12T07:59:24;97924.75;;;2.19;89.63
31775;BME280;66189;49.000;11.640;2023-02-12T08:01:27;97921.84;;;2.21;89.63
31775;BME280;66189;49.000;11.640;2023-02-12T08:03:28;97919.28;;;2.31;90.24
31775;BME280;66189;49.000;11.640;2023-02-12T08:05:28;97924.63;;;2.36;90.56
31775;BME280;66189;49.000;11.640;2023-02-12T08:07:29;97924.09;;;2.39;90.32
31775;BME280;66189;49.000;11.640;2023-02-12T08:09:29;97927.34;;;2.46;90.26
31775;BME280;66189;49.000;11.640;2023-02-12T08:11:32;97927.03;;;2.43;90.21
31775;BME280;66189;49.000;11.640;2023-02-12T08:13:34;97930.59;;;2.54;90.06
31775;BME280;66189;49.000;11.640;2023-02-12T08:15:35;97934.06;;;2.59;89.91
31775;BME280;66189;49.000;11.640;2023-02-12T08:17:35;97935.16;;;2.63;90.02
31775;BME280;66189;49.000;11.640;2023-02-12T08:19:36;97931.72;;;2.68;89.85
31775;BME280;66189;49.000;11.640;2023-02-12T08:21:37;97934.66;;;2.72;89.64
31775;BME280;66189;49.000;11.640;2023-02-12T08:23:38;97936.59;;;2.81;89.09
31775;BME280;66189;49.000;11.640;2023-02-12T08:25:39;97938.72;;;2.84;88.65
31775;BME280;66189;49.000;11.640;2023-02-12T08:27:40;97932.88;;;2.82;88.85
31775;BME280;66189;49.000;11.640;2023-02-12T08:29:41;97933.69;;;2.83;88.14
31775;BME280;66189;49.000;11.640;2023-02-12T08:31:47;97936.59;;;2.81;88.35
31775;BME280;66189;49.000;11.640;2023-02-12T08:33:48;97934.72;;;2.82;88.93
31775;BME280;66189;49.000;11.640;2023-02-12T08:35:49;97939.00;;;2.88;88.54
31775;BME280;66189;49.000;11.640;2023-02-12T08:37:49;97933.16;;;2.81;88.80
31775;BME280;66189;49.000;11.640;2023-02-12T08:39:49;97931.56;;;2.85;88.73
31775;BME280;66189;49.000;11.640;2023-02-12T08:41:50;97939.56;;;2.90;88.15
31775;BME280;66189;49.000;11.640;2023-02-12T08:43:55;97928.63;;;2.87;88.19
31775;BME280;66189;49.000;11.640;2023-02-12T08:46:04;97933.19;;;2.91;88.50
31775;BME280;66189;49.000;11.640;2023-02-12T08:48:05;97936.94;;;2.95;88.22
31775;BME280;66189;49.000;11.640;2023-02-12T08:50:06;97931.06;;;2.93;88.41
31775;BME280;66189;49.000;11.640;2023-02-12T08:52:06;97934.00;;;2.97;88.15
31775;BME280;66189;49.000;11.640;2023-02-12T08:54:11;97933.88;;;2.76;87.79
31775;BME280;66189;49.000;11.640;2023-02-12T08:56:13;97930.94;;;2.67;88.65
31775;BME280;66189;49.000;11.640;2023-02-12T08:58:15;97933.34;;;2.74;88.88
31775;BME280;66189;49.000;11.640;2023-02-12T09:00:16;97932.88;;;2.82;89.29
31775;BME280;66189;49.000;11.640;2023-02-12T09:02:16;97935.19;;;2.69;89.15
31775;BME280;66189;49.000;11.640;2023-02-12T09:04:19;97939.97;;;2.72;88.97
31775;BME280;66189;49.000;11.640;2023-02-12T09:06:22;97940.28;;;2.75;89.26
31775;BME280;66189;49.000;11.640;2023-02-12T09:08:23;97937.06;;;2.73;89.51
31775;BME280;66189;49.000;11.640;2023-02-12T09:10:23;97941.31;;;2.69;89.24
31775;BME280;66189;49.000;11.640;2023-02-12T09:12:24;97937.75;;;2.53;89.14
31775;BME280;66189;49.000;11.640;2023-02-12T09:14:24;97949.47;;;2.57;89.95
31775;BME280;66189;49.000;11.640;2023-02-12T09:16:29;97946.31;;;2.60;89.97
31775;BME280;66189;49.000;11.640;2023-02-12T09:18:30;97954.59;;;2.69;89.82
31775;BME280;66189;49.000;11.640;2023-02-12T09:20:31;97952.00;;;2.79;90.18
31775;BME280;66189;49.000;11.640;2023-02-12T09:22:32;97949.13;;;2.91;89.91
31775;BME280;66189;49.000;11.640;2023-02-12T09:24:32;97955.28;;;2.97;89.50
31775;BME280;66189;49.000;11.640;2023-02-12T09:26:33;97949.19;;;3.01;89.27
31775;BME280;66189;49.000;11.640;2023-02-12T09:28:34;97952.13;;;3.05;89.10
31775;BME280;66189;49.000;11.640;2023-02-12T09:30:38;97955.84;;;3.04;88.91
31775;BME280;66189;49.000;11.640;2023-02-12T09:32:38;97954.00;;;3.10;88.87
31775;BME280;66189;49.000;11.640;2023-02-12T09:34:39;97958.78;;;3.08;88.42
31775;BME280;66189;49.000;11.640;2023-02-12T09:36:42;97963.09;;;3.19;88.42
31775;BME280;66189;49.000;11.640;2023-02-12T09:38:42;97960.19;;;3.20;88.19
31775;BME280;66189;49.000;11.640;2023-02-12T09:45:19;97954.00;;;3.10;88.46
31775;BME280;66189;49.000;11.640;2023-02-12T09:51:52;97952.22;;;3.26;88.24
31775;BME280;66189;49.000;11.640;2023-02-12T09:54:15;97955.59;;;3.11;89.13
31775;BME280;66189;49.000;11.640;2023-02-12T09:56:20;97956.66;;;3.10;89.03
31775;BME280;66189;49.000;11.640;2023-02-12T09:58:41;97964.94;;;3.18;89.53
31775;BME280;66189;49.000;11.640;2023-02-12T10:00:44;97964.63;;;3.05;88.84
31775;BME280;66189;49.000;11.640;2023-02-12T10:02:45;97962.50;;;3.07;89.53
31775;BME280;66189;49.000;11.640;2023-02-12T10:04:46;97958.84;;;3.18;89.57
31775;BME280;66189;49.000;11.640;2023-02-12T10:07:47;97967.94;;;3.32;89.83
31775;BME280;66189;49.000;11.640;2023-02-12T10:12:12;97959.75;;;3.49;88.22
31775;BME280;66189;49.000;11.640;2023-02-12T10:14:33;97962.16;;;3.61;87.88
31775;BME280;66189;49.000;11.640;2023-02-12T10:16:48;97961.38;;;3.66;87.15
31775;BME280;66189;49.000;11.640;2023-02-12T10:21:20;97963.28;;;3.76;87.80
31775;BME280;66189;49.000;11.640;2023-02-12T10:23:59;97957.16;;;3.75;86.88
31775;BME280;66189;49.000;11.640;2023-02-12T10:26:21;97957.16;;;3.85;86.90
31775;BME280;66189;49.000;11.640;2023-02-12T10:28:27;97958.53;;;3.98;87.61
31775;BME280;66189;49.000;11.640;2023-02-12T10:30:47;97958.53;;;4.03;87.75
31775;BME280;66189;49.000;11.640;2023-02-12T10:32:55;97959.03;;;3.90;87.39
31775;BME280;66189;49.000;11.640;2023-02-12T10:34:58;97957.19;;;4.01;87.52
31775;BME280;66189;49.000;11.640;2023-02-12T10:37:12;97959.31;;;4.14;88.10
31775;BME280;66189;49.000;11.640;2023-02-12T10:39:25;97961.47;;;4.22;87.31
31775;BME280;66189;49.000;11.640;2023-02-12T10:41:29;97966.25;;;4.31;86.42
31775;BME280;66189;49.000;11.640;2023-02-12T10:43:31;97959.88;;;4.57;87.58
31775;BME280;66189;49.000;11.640;2023-02-12T10:45:34;97960.13;;;4.61;85.46
31775;BME280;66189;49.000;11.640;2023-02-12T10:47:35;97967.84;;;4.68;85.45
31775;BME280;66189;49.000;11.640;2023-02-12T10:49:36;97958.22;;;4.82;85.86
31775;BME280;66189;49.000;11.640;2023-02-12T10:51:55;97966.25;;;4.67;83.31
31775;BME280;66189;49.000;11.640;2023-02-12T10:53:56;97963.31;;;4.58;83.48
31775;BME280;66189;49.000;11.640;2023-02-12T10:58:18;97967.59;;;4.59;83.76
31775;BME280;66189;49.000;11.640;2023-02-12T11:00:29;97966.78;;;4.74;82.75
31775;BME280;66189;49.000;11.640;2023-02-12T11:02:32;97973.97;;;4.68;83.84
31775;BME280;66189;49.000;11.640;2023-02-12T11:04:33;97959.31;;;4.60;83.45
31775;BME280;66189;49.000;11.640;2023-02-12T11:06:33;97962.78;;;4.71;83.76
31775;BME280;66189;49.000;11.640;2023-02-12T11:08:35;97962.25;;;4.54;83.79
31775;BME280;66189;49.000;11.640;2023-02-12T11:10:39;97957.19;;;4.57;84.50
31775;BME280;66189;49.000;11.640;2023-02-12T11:12:41;97968.91;;;4.56;85.30
31775;BME280;66189;49.000;11.640;2023-02-12T11:14:59;97965.97;;;4.68;84.45
31775;BME280;66189;49.000;11.640;2023-02-12T11:17:01;97962.00;;;4.50;83.40
31775;BME280;66189;49.000;11.640;2023-02-12T11:19:06;97960.09;;;4.76;83.71
31775;BME280;66189;49.000;11.640;2023-02-12T11:21:09;97957.38;;;4.92;83.34
31775;BME280;66189;49.000;11.640;2023-02-12T11:23:37;97959.53;;;4.79;83.32
31775;BME280;66189;49.000;11.640;2023-02-12T11:25:54;97960.56;;;4.99;83.48
31775;BME280;66189;49.000;11.640;2023-02-12T11:30:14;97956.34;;;4.83;82.52
31775;BME280;66189;49.000;11.640;2023-02-12T11:32:17;97963.50;;;5.03;83.76
31775;BME280;66189;49.000;11.640;2023-02-12T11:34:18;97958.66;;;5.10;82.53
31775;BME280;66189;49.000;11.640;2023-02-12T11:36:23;97958.38;;;5.22;81.80
31775;BME280;66189;49.000;11.640;2023-02-12T11:38:30;97962.69;;;5.07;81.79
31775;BME280;66189;49.000;11.640;2023-02-12T11:40:32;97956.75;;;5.21;81.46
31775;BME280;66189;49.000;11.640;2023-02-12T11:42:36;97951.75;;;5.04;82.32
31775;BME280;66189;49.000;11.640;2023-02-12T11:44:39;97951.03;;;4.77;82.57
31775;BME280;66189;49.000;11.640;2023-02-12T11:46:47;97945.72;;;4.57;82.76
31775;BME280;66189;49.000;11.640;2023-02-12T11:48:50;97952.91;;;4.61;83.76
31775;BME280;66189;49.000;11.640;2023-02-12T11:50:53;97957.19;;;4.57;84.60
31775;BME280;66189;49.000;11.640;2023-02-12T11:53:06;97949.19;;;4.62;84.87
31775;BME280;66189;49.000;11.640;2023-02-12T11:55:22;97958.50;;;4.60;84.19